createdAt,value
2023-02-17T00:00:57.006Z,101386.94
2023-02-17T00:03:24.355Z,101392.88
2023-02-17T00:05:51.448Z,101182.00
2023-02-17T00:08:17.822Z,101355.91
2023-02-17T00:10:44.304Z,101357.31
2023-02-17T00:13:10.699Z,101376.19
2023-02-17T00:15:40.425Z,101347.19
2023-02-17T00:18:06.920Z,101277.00
2023-02-17T00:20:33.398Z,101307.47
2023-02-17T00:22:59.766Z,101323.00
2023-02-17T00:25:26.160Z,101218.97
2023-02-17T00:27:52.511Z,101185.59
2023-02-17T00:30:19.116Z,101338.53
2023-02-17T00:32:45.549Z,101286.84
2023-02-17T00:35:11.968Z,101248.03
2023-02-17T00:37:38.461Z,101217.94
2023-02-17T00:40:05.441Z,101185.84
2023-02-17T00:42:31.854Z,101331.31
2023-02-17T00:44:58.222Z,101338.34
2023-02-17T00:47:24.562Z,101348.50
2023-02-17T00:49:52.112Z,101362.47
2023-02-17T00:52:18.561Z,101320.91
2023-02-17T00:54:44.902Z,101345.09
2023-02-17T00:57:11.296Z,101322.03
2023-02-17T00:59:37.703Z,101348.78
2023-02-17T01:02:04.337Z,101210.50
2023-02-17T01:04:31.379Z,101316.00
2023-02-17T01:06:57.870Z,101140.94
2023-02-17T01:09:25.066Z,101235.66
2023-02-17T01:11:51.635Z,101252.44
2023-02-17T01:14:18.292Z,101256.00
2023-02-17T01:16:48.175Z,101324.22
2023-02-17T01:19:18.100Z,101332.44
2023-02-17T01:21:45.372Z,101221.06
2023-02-17T01:24:12.779Z,101108.06
2023-02-17T01:26:41.391Z,101318.03
2023-02-17T01:29:09.897Z,101253.47
2023-02-17T01:31:36.977Z,101190.81
2023-02-17T01:34:04.691Z,101300.66
2023-02-17T01:36:32.006Z,101260.81
2023-02-17T01:39:01.580Z,101250.28
2023-02-17T01:41:28.798Z,101241.06
2023-02-17T01:44:05.587Z,101308.00
2023-02-17T01:46:34.238Z,101313.34
2023-02-17T01:49:03.228Z,101327.56
2023-02-17T01:51:33.889Z,101231.09
2023-02-17T01:54:07.771Z,101227.00
2023-02-17T01:56:38.416Z,101178.84
2023-02-17T01:59:10.541Z,101264.22
2023-02-17T02:01:37.444Z,101271.75
2023-02-17T02:04:06.269Z,101275.41
2023-02-17T02:06:36.196Z,101247.78
2023-02-17T02:09:10.979Z,101210.28
2023-02-17T02:11:37.824Z,101141.78
2023-02-17T02:14:08.007Z,101266.44
2023-02-17T02:16:45.413Z,101280.38
2023-02-17T02:19:22.900Z,101238.84
2023-02-17T02:22:05.301Z,101293.84
2023-02-17T02:24:51.512Z,101287.59
2023-02-17T02:27:34.248Z,101283.56
2023-02-17T02:30:24.171Z,101266.94
2023-02-17T02:32:59.937Z,101166.22
2023-02-17T02:35:50.887Z,101159.09
2023-02-17T02:39:02.986Z,101281.91
2023-02-17T02:41:39.753Z,101127.34
2023-02-17T02:44:09.695Z,101132.97
2023-02-17T02:46:36.648Z,101248.50
2023-02-17T02:49:04.287Z,101269.84
2023-02-17T02:51:38.815Z,101274.88
2023-02-17T02:54:26.504Z,101279.72
2023-02-17T02:57:12.527Z,101265.38
2023-02-17T02:59:48.071Z,101264.75
2023-02-17T03:02:44.618Z,101257.63
2023-02-17T03:05:21.601Z,101246.59
2023-02-17T03:07:59.812Z,101206.78
2023-02-17T03:10:26.417Z,101244.06
2023-02-17T03:12:52.749Z,101238.84
2023-02-17T03:15:26.046Z,101199.94
2023-02-17T03:17:52.386Z,101226.16
2023-02-17T03:20:18.908Z,101235.09
2023-02-17T03:22:48.108Z,101212.56
2023-02-17T03:25:15.541Z,101166.31
2023-02-17T03:27:42.576Z,101110.66
2023-02-17T03:30:10.163Z,101225.03
2023-02-17T03:32:36.684Z,101243.03
2023-02-17T03:35:03.873Z,101178.97
2023-02-17T03:37:30.769Z,101116.31
2023-02-17T03:39:57.353Z,101100.38
2023-02-17T03:42:23.976Z,101135.44
2023-02-17T03:44:50.487Z,101018.75
2023-02-17T03:47:16.952Z,101197.84
2023-02-17T03:49:43.458Z,101219.78
2023-02-17T03:52:10.269Z,101223.97
2023-02-17T03:54:37.932Z,101214.13
2023-02-17T03:57:04.416Z,101216.53
2023-02-17T03:59:31.141Z,101208.06
2023-02-17T04:01:57.549Z,101217.06
2023-02-17T04:04:24.069Z,101236.88
2023-02-17T04:06:50.555Z,101186.72
2023-02-17T04:09:17.180Z,101050.25
2023-02-17T04:11:43.700Z,101160.09
2023-02-17T04:14:10.524Z,101087.72
2023-02-17T04:16:39.082Z,101232.75
2023-02-17T04:19:06.916Z,101220.13
2023-02-17T04:21:33.850Z,101127.53
2023-02-17T04:24:01.755Z,101010.22
2023-02-17T04:26:28.694Z,101221.69
2023-02-17T04:28:55.118Z,101227.00
2023-02-17T04:31:21.797Z,101243.41
2023-02-17T04:33:48.478Z,101229.28
2023-02-17T04:36:14.956Z,101218.81
2023-02-17T04:38:41.372Z,101241.91
2023-02-17T04:41:07.921Z,101234.16
2023-02-17T04:43:34.421Z,101089.34
2023-02-17T04:46:00.932Z,101249.28
2023-02-17T04:48:27.363Z,101240.19
2023-02-17T04:50:53.748Z,101128.34
2023-02-17T04:53:20.689Z,101244.31
2023-02-17T04:55:52.574Z,101259.59
2023-02-17T04:58:19.697Z,101241.03
2023-02-17T05:00:47.998Z,101222.31
2023-02-17T05:03:14.403Z,101238.03
2023-02-17T05:05:40.785Z,101140.41
2023-02-17T05:08:07.192Z,101231.28
2023-02-17T05:10:33.602Z,101227.97
2023-02-17T05:13:00.001Z,101222.50
2023-02-17T05:15:26.707Z,101053.22
2023-02-17T05:17:53.043Z,101235.31
2023-02-17T05:20:19.605Z,101221.63
2023-02-17T05:22:45.991Z,101190.63
2023-02-17T05:25:12.344Z,101238.94
2023-02-17T05:27:38.808Z,101157.06
2023-02-17T05:30:06.424Z,101222.75
2023-02-17T05:32:33.056Z,101221.31
2023-02-17T05:34:59.502Z,101208.56
2023-02-17T05:37:26.868Z,101207.88
2023-02-17T05:39:53.249Z,101203.84
2023-02-17T05:42:19.604Z,101190.88
2023-02-17T05:44:45.953Z,101186.09
2023-02-17T05:47:12.352Z,101120.22
2023-02-17T05:49:38.886Z,101226.41
2023-02-17T05:52:05.232Z,101158.72
2023-02-17T05:54:31.660Z,101228.25
2023-02-17T05:56:58.018Z,101162.25
2023-02-17T05:59:24.612Z,101228.28
2023-02-17T06:01:50.980Z,101228.06
2023-02-17T06:04:17.407Z,101225.88
2023-02-17T06:06:44.873Z,101186.16
2023-02-17T06:09:18.316Z,101100.78
2023-02-17T06:11:44.791Z,101043.19
2023-02-17T06:14:11.226Z,101202.78
2023-02-17T06:16:37.762Z,101115.69
2023-02-17T06:19:05.187Z,101213.00
2023-02-17T06:21:31.983Z,101163.13
2023-02-17T06:23:58.349Z,101185.47
2023-02-17T06:26:24.953Z,101230.53
2023-02-17T06:28:53.988Z,101237.78
2023-02-17T06:31:20.700Z,101109.13
2023-02-17T06:33:47.471Z,101232.53
2023-02-17T06:36:13.952Z,101108.59
2023-02-17T06:38:40.377Z,101132.50
2023-02-17T06:41:06.766Z,101044.47
2023-02-17T06:43:33.203Z,101190.03
2023-02-17T06:45:59.684Z,101130.50
2023-02-17T06:48:26.146Z,101203.44
2023-02-17T06:50:52.689Z,101137.59
2023-02-17T06:53:19.197Z,101150.53
2023-02-17T06:55:45.583Z,101200.75
2023-02-17T06:58:12.685Z,101016.66
2023-02-17T07:00:39.153Z,101215.00
2023-02-17T07:03:06.618Z,101143.78
2023-02-17T07:05:37.688Z,101234.75
2023-02-17T07:08:07.759Z,101227.00
2023-02-17T07:10:34.469Z,101223.19
2023-02-17T07:13:00.890Z,101212.66
2023-02-17T07:15:27.279Z,101139.47
2023-02-17T07:17:53.637Z,101179.47
2023-02-17T07:20:22.588Z,101127.59
2023-02-17T07:22:49.002Z,101114.78
2023-02-17T07:25:15.514Z,101182.84
2023-02-17T07:27:41.992Z,101081.09
2023-02-17T07:30:08.933Z,101221.31
2023-02-17T07:32:35.628Z,101187.47
2023-02-17T07:35:02.280Z,101195.97
2023-02-17T07:37:34.617Z,101090.56
2023-02-17T07:40:01.152Z,101252.53
2023-02-17T07:42:28.405Z,101204.03
2023-02-17T07:44:58.046Z,101094.38
2023-02-17T07:47:24.495Z,101084.44
2023-02-17T07:49:53.383Z,101121.22
2023-02-17T07:52:22.542Z,101149.66
2023-02-17T07:54:48.975Z,101203.94
2023-02-17T07:57:16.645Z,101144.72
2023-02-17T07:59:46.535Z,101151.38
2023-02-17T08:02:14.979Z,101023.03
2023-02-17T08:04:43.655Z,101002.19
2023-02-17T08:07:10.275Z,101218.25
2023-02-17T08:09:55.308Z,101116.09
2023-02-17T08:12:40.505Z,101033.88
2023-02-17T08:15:09.396Z,101242.28
2023-02-17T08:17:36.221Z,101186.50
2023-02-17T08:20:08.729Z,101219.59
2023-02-17T08:22:36.100Z,101218.78
2023-02-17T08:25:02.759Z,101236.09
2023-02-17T08:27:29.226Z,101219.31
2023-02-17T08:30:01.189Z,101105.88
2023-02-17T08:32:27.634Z,101204.81
2023-02-17T08:34:59.362Z,101004.66
2023-02-17T08:37:26.008Z,101228.50
2023-02-17T08:39:54.879Z,101072.34
2023-02-17T08:42:21.540Z,101203.16
2023-02-17T08:44:47.920Z,101144.03
2023-02-17T08:47:16.692Z,101230.03
2023-02-17T08:49:45.533Z,101229.72
2023-02-17T08:52:12.032Z,101224.09
2023-02-17T08:54:41.154Z,101149.50
2023-02-17T08:57:07.544Z,101083.16
2023-02-17T08:59:33.995Z,101242.84
2023-02-17T09:02:02.657Z,101224.22
2023-02-17T09:04:31.696Z,101160.78
2023-02-17T09:06:58.376Z,101228.00
2023-02-17T09:09:29.277Z,101241.66
2023-02-17T09:12:02.627Z,101101.09
2023-02-17T09:14:29.132Z,101182.31
2023-02-17T09:16:57.869Z,101206.66
2023-02-17T09:19:31.603Z,101146.75
2023-02-17T09:22:01.117Z,101243.81
2023-02-17T09:24:28.679Z,101186.72
2023-02-17T09:26:57.399Z,101174.22
2023-02-17T09:29:23.779Z,101137.78
2023-02-17T09:31:50.441Z,101210.94
2023-02-17T09:34:16.945Z,101213.13
2023-02-17T09:36:45.513Z,101228.81
2023-02-17T09:39:14.058Z,101204.34
2023-02-17T09:41:50.148Z,101240.28
2023-02-17T09:44:27.053Z,101256.94
2023-02-17T09:47:05.537Z,101277.78
2023-02-17T09:49:57.103Z,101235.84
2023-02-17T09:52:37.517Z,101252.00
2023-02-17T09:55:07.137Z,101269.75
2023-02-17T09:58:28.297Z,101183.84
2023-02-17T10:00:58.207Z,101251.75
2023-02-17T10:03:31.051Z,101262.66
2023-02-17T10:06:15.312Z,101260.13
2023-02-17T10:09:03.104Z,101262.22
2023-02-17T10:11:44.097Z,101264.13
2023-02-17T10:14:28.706Z,101276.28
2023-02-17T10:16:59.925Z,101280.19
2023-02-17T10:19:38.773Z,101253.84
2023-02-17T10:22:16.131Z,101270.94
2023-02-17T10:24:42.936Z,101252.22
2023-02-17T10:27:41.787Z,101257.56
2023-02-17T10:30:35.226Z,101268.53
2023-02-17T10:33:20.564Z,101290.88
2023-02-17T10:35:58.981Z,101279.22
2023-02-17T10:38:53.206Z,101275.91
2023-02-17T10:41:38.556Z,101283.06
2023-02-17T10:44:21.110Z,101268.50
2023-02-17T10:46:50.683Z,101189.50
2023-02-17T10:49:37.437Z,101160.41
2023-02-17T10:52:43.162Z,101278.31
2023-02-17T10:55:36.974Z,101292.81
2023-02-17T10:58:50.146Z,101291.56
2023-02-17T11:01:17.281Z,101309.47
2023-02-17T11:03:44.245Z,101164.09
2023-02-17T11:06:18.852Z,101270.09
2023-02-17T11:09:00.585Z,101160.22
2023-02-17T11:11:32.409Z,101157.16
2023-02-17T11:14:09.441Z,101174.28
2023-02-17T11:16:41.582Z,101267.75
2023-02-17T11:19:21.824Z,101255.25
2023-02-17T11:21:51.226Z,101242.38
2023-02-17T11:24:18.300Z,101198.97
2023-02-17T11:26:58.647Z,101260.41
2023-02-17T11:29:25.483Z,101236.06
2023-02-17T11:31:55.058Z,101233.41
2023-02-17T11:34:25.227Z,101240.19
2023-02-17T11:37:05.926Z,101184.09
2023-02-17T11:39:38.862Z,101219.97
2023-02-17T11:42:26.370Z,101193.56
2023-02-17T11:44:56.132Z,101230.44
2023-02-17T11:47:38.649Z,101216.56
2023-02-17T11:50:11.190Z,101208.41
2023-02-17T11:53:04.400Z,101225.47
2023-02-17T11:56:08.922Z,101244.19
2023-02-17T11:58:46.898Z,101218.91
2023-02-17T12:01:47.459Z,101203.91
2023-02-17T12:04:23.887Z,101191.91
2023-02-17T12:07:30.290Z,101232.63
2023-02-17T12:10:14.682Z,101179.72
2023-02-17T12:13:08.143Z,101213.38
2023-02-17T12:16:21.567Z,101194.69
2023-02-17T12:19:01.820Z,101072.63
2023-02-17T12:21:39.677Z,101180.53
2023-02-17T12:24:19.400Z,101164.16
2023-02-17T12:27:06.004Z,101124.25
2023-02-17T12:29:53.632Z,101186.50
2023-02-17T12:32:41.757Z,101204.84
2023-02-17T12:35:15.302Z,101195.94
2023-02-17T12:37:58.319Z,101197.59
2023-02-17T12:40:37.685Z,101191.84
2023-02-17T12:43:27.445Z,101173.91
2023-02-17T12:45:58.051Z,101209.38
2023-02-17T12:48:39.809Z,101082.97
2023-02-17T12:51:19.261Z,101189.75
2023-02-17T12:54:01.110Z,101198.63
2023-02-17T12:56:39.788Z,101173.31
2023-02-17T12:59:20.401Z,101191.53
2023-02-17T13:01:52.630Z,101131.19
2023-02-17T13:04:24.566Z,101103.28
2023-02-17T13:06:59.691Z,101085.28
2023-02-17T13:09:40.825Z,101097.81
2023-02-17T13:12:23.250Z,101132.59
2023-02-17T13:14:51.523Z,101204.94
2023-02-17T13:17:51.898Z,101054.47
2023-02-17T13:20:18.234Z,101206.72
2023-02-17T13:22:45.579Z,101219.47
2023-02-17T13:25:37.038Z,101222.69
2023-02-17T13:28:38.392Z,101118.28
2023-02-17T13:31:17.762Z,101212.53
2023-02-17T13:33:54.380Z,101252.22
2023-02-17T13:36:32.918Z,101245.00
2023-02-17T13:39:03.726Z,101251.59
2023-02-17T13:41:44.358Z,101235.16
2023-02-17T13:44:40.290Z,101174.09
2023-02-17T13:47:24.806Z,101259.34
2023-02-17T13:49:57.087Z,101148.63
2023-02-17T13:52:26.472Z,101218.91
2023-02-17T13:54:55.291Z,101239.91
2023-02-17T13:57:29.128Z,101263.00
2023-02-17T14:00:13.805Z,101241.44
2023-02-17T14:02:48.676Z,101229.00
2023-02-17T14:05:45.538Z,101259.63
2023-02-17T14:08:44.164Z,101243.16
2023-02-17T14:11:22.866Z,101176.31
2023-02-17T14:13:51.893Z,101268.47
2023-02-17T14:16:34.417Z,101244.94
2023-02-17T14:19:10.870Z,101301.41
2023-02-17T14:21:41.047Z,101314.91
2023-02-17T14:24:22.003Z,101294.91
2023-02-17T14:26:49.485Z,101303.22
2023-02-17T14:29:25.786Z,101217.34
2023-02-17T14:31:53.543Z,101203.16
2023-02-17T14:34:28.402Z,101328.78
2023-02-17T14:36:55.582Z,101264.16
2023-02-17T14:39:22.404Z,101341.38
2023-02-17T14:41:48.854Z,101324.72
2023-02-17T14:44:15.455Z,101349.81
2023-02-17T14:46:42.032Z,101159.81
2023-02-17T14:49:08.466Z,101348.34
2023-02-17T14:51:37.511Z,101285.63
2023-02-17T14:54:13.931Z,101319.31
2023-02-17T14:57:06.101Z,101338.41
2023-02-17T14:59:32.765Z,101237.78
2023-02-17T15:01:59.879Z,101337.53
2023-02-17T15:04:26.488Z,101234.16
2023-02-17T15:06:54.695Z,101311.50
2023-02-17T15:09:28.981Z,101353.56
2023-02-17T15:11:56.190Z,101343.38
2023-02-17T15:14:22.608Z,101336.75
2023-02-17T15:16:49.336Z,101279.16
2023-02-17T15:19:17.981Z,101302.41
2023-02-17T15:21:47.635Z,101355.72
2023-02-17T15:24:16.992Z,101313.97
2023-02-17T15:26:43.562Z,101202.72
2023-02-17T15:29:19.180Z,101252.06
2023-02-17T15:31:47.199Z,101363.75
2023-02-17T15:34:16.406Z,101387.25
2023-02-17T15:36:43.249Z,101377.09
2023-02-17T15:39:16.237Z,101321.03
2023-02-17T15:41:44.891Z,101354.09
2023-02-17T15:44:24.357Z,101389.69
2023-02-17T15:46:53.391Z,101411.78
2023-02-17T15:49:20.504Z,101301.91
2023-02-17T15:51:46.986Z,101390.28
2023-02-17T15:54:13.432Z,101317.56
2023-02-17T15:56:44.068Z,101375.75
2023-02-17T15:59:16.354Z,101432.88
2023-02-17T16:01:43.073Z,101335.69
2023-02-17T16:04:14.546Z,101366.53
2023-02-17T16:06:41.212Z,101288.50
2023-02-17T16:09:08.736Z,101350.91
2023-02-17T16:11:38.559Z,101366.28
2023-02-17T16:14:05.706Z,101306.84
2023-02-17T16:16:33.484Z,101389.19
2023-02-17T16:19:00.827Z,101360.53
2023-02-17T16:21:27.672Z,101323.91
2023-02-17T16:23:58.967Z,101400.22
2023-02-17T16:26:34.775Z,101249.66
2023-02-17T16:29:03.650Z,101404.84
2023-02-17T16:31:32.359Z,101373.59
2023-02-17T16:34:00.290Z,101389.47
2023-02-17T16:36:32.087Z,101344.19
2023-02-17T16:39:00.525Z,101368.81
2023-02-17T16:41:28.563Z,101372.47
2023-02-17T16:43:55.434Z,101344.69
2023-02-17T16:46:31.166Z,101396.63
2023-02-17T16:49:04.649Z,101347.44
2023-02-17T16:51:31.093Z,101315.41
2023-02-17T16:53:57.471Z,101278.88
2023-02-17T16:56:37.442Z,101452.00
2023-02-17T16:59:04.787Z,101344.56
2023-02-17T17:01:32.173Z,101372.63
2023-02-17T17:03:58.548Z,101476.38
2023-02-17T17:06:28.894Z,101494.13
2023-02-17T17:08:56.046Z,101389.56
2023-02-17T17:11:25.328Z,101394.13
2023-02-17T17:13:52.484Z,101377.78
2023-02-17T17:16:21.714Z,101426.97
2023-02-17T17:18:48.316Z,101498.63
2023-02-17T17:21:17.233Z,101469.09
2023-02-17T17:23:46.260Z,101444.53
2023-02-17T17:26:20.258Z,101484.22
2023-02-17T17:28:48.999Z,101505.81
2023-02-17T17:31:16.154Z,101490.13
2023-02-17T17:33:42.704Z,101501.34
2023-02-17T17:36:14.622Z,101448.00
2023-02-17T17:38:41.114Z,101452.19
2023-02-17T17:41:11.880Z,101440.75
2023-02-17T17:43:38.303Z,101453.22
2023-02-17T17:46:22.805Z,101487.38
2023-02-17T17:48:49.257Z,101419.03
2023-02-17T17:51:18.815Z,101497.03
2023-02-17T17:53:45.576Z,101471.16
2023-02-17T17:56:22.465Z,101482.78
2023-02-17T17:58:49.696Z,101545.25
2023-02-17T18:01:17.186Z,101468.94
2023-02-17T18:03:43.627Z,101511.97
2023-02-17T18:06:15.996Z,101469.97
2023-02-17T18:08:45.016Z,101528.63
2023-02-17T18:11:14.506Z,101433.66
2023-02-17T18:13:42.010Z,101545.97
2023-02-17T18:16:08.888Z,101559.09
2023-02-17T18:18:36.808Z,101507.72
2023-02-17T18:21:03.242Z,101489.19
2023-02-17T18:23:29.649Z,101453.25
2023-02-17T18:25:56.068Z,101453.03
2023-02-17T18:28:22.528Z,101534.81
2023-02-17T18:30:49.275Z,101564.47
2023-02-17T18:33:15.789Z,101598.44
2023-02-17T18:35:44.056Z,101592.22
2023-02-17T18:38:10.497Z,101576.22
2023-02-17T18:40:41.157Z,101597.59
2023-02-17T18:43:08.593Z,101470.63
2023-02-17T18:45:35.634Z,101546.31
2023-02-17T18:48:02.192Z,101496.56
2023-02-17T18:50:32.884Z,101589.97
2023-02-17T18:53:00.308Z,101602.84
2023-02-17T18:55:26.935Z,101515.78
2023-02-17T18:57:54.089Z,101517.66
2023-02-17T19:00:24.586Z,101460.81
2023-02-17T19:02:51.087Z,101620.22
2023-02-17T19:05:17.561Z,101605.38
2023-02-17T19:07:44.263Z,101449.72
2023-02-17T19:10:11.471Z,101535.25
2023-02-17T19:12:37.982Z,101474.69
2023-02-17T19:15:05.479Z,101536.84
2023-02-17T19:17:32.021Z,101601.25
2023-02-17T19:19:58.553Z,101601.38
2023-02-17T19:22:24.933Z,101471.31
2023-02-17T19:24:53.985Z,101616.78
2023-02-17T19:27:20.938Z,101542.38
2023-02-17T19:29:47.359Z,101611.09
2023-02-17T19:32:13.954Z,101536.59
2023-02-17T19:34:40.452Z,101567.72
2023-02-17T19:37:09.350Z,101600.72
2023-02-17T19:39:36.054Z,101546.50
2023-02-17T19:42:03.230Z,101549.78
2023-02-17T19:44:31.221Z,101563.63
2023-02-17T19:46:59.165Z,101567.03
2023-02-17T19:49:33.013Z,101536.75
2023-02-17T19:51:59.401Z,101483.91
2023-02-17T19:54:25.852Z,101487.00
2023-02-17T19:56:52.636Z,101552.78
2023-02-17T19:59:19.203Z,101636.72
2023-02-17T20:01:45.793Z,101511.34
2023-02-17T20:04:14.687Z,101637.72
2023-02-17T20:06:44.357Z,101657.75
2023-02-17T20:09:15.628Z,101561.72
2023-02-17T20:11:43.251Z,101580.78
2023-02-17T20:14:11.092Z,101450.44
2023-02-17T20:16:41.134Z,101647.16
2023-02-17T20:19:07.905Z,101644.63
2023-02-17T20:21:38.556Z,101551.56
2023-02-17T20:24:05.573Z,101582.44
2023-02-17T20:26:37.561Z,101585.84
2023-02-17T20:29:04.384Z,101545.28
2023-02-17T20:31:31.942Z,101627.53
2023-02-17T20:34:02.879Z,101619.13
2023-02-17T20:36:29.316Z,101616.34
2023-02-17T20:38:55.692Z,101648.34
2023-02-17T20:41:22.980Z,101642.84
2023-02-17T20:43:50.986Z,101642.88
2023-02-17T20:46:24.793Z,101659.31
2023-02-17T20:48:51.868Z,101650.59
2023-02-17T20:51:20.004Z,101676.63
2023-02-17T20:53:54.846Z,101584.69
2023-02-17T20:56:23.893Z,101580.31
2023-02-17T20:58:51.877Z,101662.94
2023-02-17T21:01:19.841Z,101669.56
2023-02-17T21:03:47.039Z,101635.09
2023-02-17T21:06:21.644Z,101673.66
2023-02-17T21:08:53.517Z,101668.19
2023-02-17T21:11:22.509Z,101611.00
2023-02-17T21:13:49.281Z,101667.19
2023-02-17T21:16:18.709Z,101649.91
2023-02-17T21:18:46.908Z,101685.94
2023-02-17T21:21:14.159Z,101670.00
2023-02-17T21:23:40.690Z,101673.38
2023-02-17T21:26:12.237Z,101545.78
2023-02-17T21:28:39.305Z,101574.38
2023-02-17T21:31:06.451Z,101482.59
2023-02-17T21:33:33.744Z,101619.56
2023-02-17T21:36:05.477Z,101622.28
2023-02-17T21:38:32.058Z,101645.66
2023-02-17T21:41:11.578Z,101612.34
2023-02-17T21:43:57.759Z,101683.81
2023-02-17T21:46:24.736Z,101687.56
2023-02-17T21:48:53.728Z,101543.41
2023-02-17T21:51:20.512Z,101518.84
2023-02-17T21:53:48.186Z,101606.31
2023-02-17T21:56:17.163Z,101484.28
2023-02-17T21:58:47.657Z,101671.63
2023-02-17T22:01:26.855Z,101664.75
2023-02-17T22:03:54.055Z,101654.66
2023-02-17T22:06:24.326Z,101651.03
2023-02-17T22:08:51.348Z,101648.44
2023-02-17T22:11:24.549Z,101588.06
2023-02-17T22:13:55.280Z,101530.81
2023-02-17T22:16:22.458Z,101579.59
2023-02-17T22:18:49.614Z,101529.53
2023-02-17T22:21:16.237Z,101586.84
2023-02-17T22:23:45.653Z,101654.31
2023-02-17T22:26:19.662Z,101454.09
2023-02-17T22:28:46.494Z,101654.56
2023-02-17T22:31:14.975Z,101658.69
2023-02-17T22:33:42.093Z,101512.91
2023-02-17T22:36:15.337Z,101437.19
2023-02-17T22:38:44.161Z,101538.88
2023-02-17T22:41:12.941Z,101438.25
2023-02-17T22:46:38.004Z,101503.19
2023-02-17T22:49:04.976Z,101621.09
2023-02-17T22:51:37.645Z,101654.13
2023-02-17T22:54:05.286Z,101524.34
2023-02-17T22:56:32.581Z,101651.94
2023-02-17T22:59:01.500Z,101514.66
2023-02-17T23:01:30.641Z,101604.00
2023-02-17T23:03:57.161Z,101590.09
2023-02-17T23:06:29.744Z,101650.56
2023-02-17T23:08:56.496Z,101645.59
2023-02-17T23:11:44.975Z,101644.53
2023-02-17T23:14:13.258Z,101628.91
2023-02-17T23:16:40.494Z,101631.47
2023-02-17T23:19:09.404Z,101630.81
2023-02-17T23:21:36.506Z,101628.00
2023-02-17T23:24:03.560Z,101647.25
2023-02-17T23:26:30.153Z,101563.19
2023-02-17T23:28:56.577Z,101635.13
2023-02-17T23:31:23.047Z,101513.81
2023-02-17T23:33:49.468Z,101538.72
2023-02-17T23:36:16.302Z,101638.72
2023-02-17T23:38:45.586Z,101614.34
2023-02-17T23:41:12.013Z,101566.63
2023-02-17T23:43:38.461Z,101527.75
2023-02-17T23:46:05.257Z,101518.94
2023-02-17T23:48:31.772Z,101471.78
2023-02-17T23:51:04.352Z,101611.88
2023-02-17T23:53:31.453Z,101636.81
2023-02-17T23:56:33.924Z,101589.72
2023-02-17T23:59:01.249Z,101556.16
